TimeCST,TemperatureF,Dew PointF,Humidity,Sea Level PressureIn,VisibilityMPH,Wind Direction,Wind SpeedMPH,Gust SpeedMPH,PrecipitationIn,Events,Conditions,WindDirDegrees,DateUTC
12:52 AM,36.0,34.0,93,29.83,8.0,ENE,4.6,-,N/A,,Clear,70,2012-12-28 06:52:00
1:01 AM,35.6,33.8,93,29.83,4.0,East,4.6,-,N/A,,Scattered Clouds,90,2012-12-28 07:01:00
1:04 AM,35.6,35.6,100,29.83,1.5,East,5.8,-,N/A,,Mostly Cloudy,100,2012-12-28 07:04:00
1:12 AM,35.6,35.6,100,29.82,0.5,ESE,5.8,-,N/A,Fog,Fog,120,2012-12-28 07:12:00
1:44 AM,37.4,37.4,100,29.83,0.5,East,3.5,-,N/A,Fog,Fog,90,2012-12-28 07:44:00
1:52 AM,37.0,37.0,100,29.83,0.8,Calm,Calm,-,N/A,,Mist,0,2012-12-28 07:52:00
2:22 AM,35.6,35.6,100,29.84,0.2,Calm,Calm,-,N/A,Fog,Fog,0,2012-12-28 08:22:00
2:38 AM,35.6,35.6,100,29.85,0.2,NNW,3.5,-,N/A,Fog,Fog,340,2012-12-28 08:38:00
2:52 AM,36.0,36.0,100,29.85,0.2,Calm,Calm,-,N/A,Fog,Fog,0,2012-12-28 08:52:00
3:21 AM,32.0,32.0,100,29.87,1.0,NW,11.5,-,N/A,,Mist,310,2012-12-28 09:21:00
3:26 AM,32.0,30.2,93,29.87,3.0,NW,11.5,-,N/A,,Overcast,310,2012-12-28 09:26:00
3:44 AM,30.2,30.2,100,29.88,7.0,NW,10.4,-,N/A,,Overcast,320,2012-12-28 09:44:00
3:52 AM,30.9,30.0,96,29.88,9.0,NNW,10.4,-,N/A,,Overcast,330,2012-12-28 09:52:00
4:09 AM,30.2,28.4,93,29.89,10.0,NW,11.5,-,N/A,,Overcast,310,2012-12-28 10:09:00
4:52 AM,30.9,30.0,96,29.90,3.0,NNW,12.7,-,N/A,,Overcast,330,2012-12-28 10:52:00
4:55 AM,30.2,30.2,100,29.89,2.5,NNW,12.7,-,N/A,,Overcast,340,2012-12-28 10:55:00
5:04 AM,30.2,30.2,100,29.89,1.2,North,11.5,-,N/A,,Overcast,360,2012-12-28 11:04:00
5:17 AM,30.2,30.2,100,29.90,0.5,NNW,12.7,-,N/A,Fog,Light Freezing Fog,330,2012-12-28 11:17:00
5:52 AM,30.9,30.9,100,29.92,0.5,NNW,13.8,-,N/A,Fog,Light Freezing Fog,340,2012-12-28 11:52:00
6:18 AM,30.2,30.2,100,29.91,1.2,North,11.5,-,N/A,,Overcast,10,2012-12-28 12:18:00
6:37 AM,30.2,30.2,100,29.91,2.0,NNE,5.8,-,N/A,,Overcast,20,2012-12-28 12:37:00
6:52 AM,30.0,30.0,100,29.94,2.5,North,4.6,-,N/A,,Overcast,360,2012-12-28 12:52:00
7:12 AM,30.2,28.4,93,29.93,3.0,NNE,6.9,-,N/A,,Overcast,20,2012-12-28 13:12:00
7:23 AM,30.2,28.4,93,29.94,2.0,NNW,11.5,-,N/A,,Overcast,330,2012-12-28 13:23:00
7:36 AM,28.4,28.4,100,29.96,3.0,NNW,11.5,-,N/A,,Overcast,330,2012-12-28 13:36:00
8:04 AM,28.4,28.4,100,29.98,2.0,NNW,16.1,-,N/A,,Overcast,330,2012-12-28 14:04:00
8:17 AM,28.4,28.4,100,29.98,1.8,NNW,13.8,-,N/A,,Overcast,340,2012-12-28 14:17:00
8:52 AM,28.0,27.0,96,30.04,1.5,NNW,13.8,-,N/A,,Overcast,330,2012-12-28 14:52:00
9:05 AM,28.4,26.6,93,30.02,2.0,NW,18.4,-,N/A,,Overcast,320,2012-12-28 15:05:00
9:16 AM,26.6,26.6,100,30.04,4.0,NNW,16.1,-,N/A,,Overcast,330,2012-12-28 15:16:00
9:37 AM,26.6,24.8,93,30.06,3.0,NNW,19.6,-,N/A,,Overcast,330,2012-12-28 15:37:00
9:52 AM,27.0,24.1,89,30.10,3.0,NNW,21.9,-,N/A,,Overcast,330,2012-12-28 15:52:00
10:52 AM,28.0,24.1,85,30.12,8.0,NNW,15.0,-,N/A,,Overcast,330,2012-12-28 16:52:00
12:31 PM,32.0,23.0,69,30.07,10.0,NNW,10.4,-,N/A,,Overcast,330,2012-12-28 18:31:00
12:52 PM,33.1,24.1,70,30.08,10.0,NNW,12.7,17.3,N/A,,Mostly Cloudy,340,2012-12-28 18:52:00
1:14 PM,35.6,23.0,60,30.06,10.0,NNW,11.5,-,N/A,,Mostly Cloudy,330,2012-12-28 19:14:00
1:22 PM,35.6,23.0,60,30.06,10.0,NW,15.0,20.7,N/A,,Scattered Clouds,320,2012-12-28 19:22:00
1:52 PM,39.0,23.0,53,30.06,10.0,NNW,16.1,24.2,N/A,,Scattered Clouds,330,2012-12-28 19:52:00
2:52 PM,39.9,23.0,51,30.06,10.0,NNW,17.3,-,N/A,,Clear,340,2012-12-28 20:52:00
3:52 PM,39.9,21.9,49,30.08,10.0,NW,19.6,26.5,N/A,,Clear,320,2012-12-28 21:52:00
4:52 PM,39.9,19.9,45,30.10,10.0,NW,15.0,-,N/A,,Clear,310,2012-12-28 22:52:00
5:52 PM,36.0,17.1,46,30.13,10.0,NNW,11.5,-,N/A,,Clear,330,2012-12-28 23:52:00
6:52 PM,30.9,16.0,54,30.17,10.0,NNW,6.9,-,N/A,,Clear,340,2012-12-29 00:52:00
7:52 PM,30.0,15.1,54,30.21,10.0,NNW,9.2,-,N/A,,Clear,330,2012-12-29 01:52:00
8:52 PM,28.9,14.0,54,30.23,10.0,NNW,5.8,-,N/A,,Clear,330,2012-12-29 02:52:00
9:52 PM,26.1,14.0,60,30.25,10.0,Calm,Calm,-,N/A,,Clear,0,2012-12-29 03:52:00
10:52 PM,25.0,12.9,60,30.27,10.0,Calm,Calm,-,N/A,,Clear,0,2012-12-29 04:52:00
11:52 PM,27.0,14.0,58,30.26,10.0,Calm,Calm,-,N/A,,Clear,0,2012-12-29 05:52:00